Terminal Aerodrome Forecast
Issued by NWS Jackson, KY

Home | Current Version | Previous Version | Text Only | Print | Product List | Glossary On
Versions: 1 2 3 4 5 6 7 8 9 10 11 12 13 14 15
000
FTUS43 KJKL 010314 AAA
TAFLOZ
TAF AMD
KLOZ 010314Z 0103/0124 22007KT P6SM BKN020
     FM010500 VRB03KT P6SM SCT050 BKN250
      TEMPO 0106/0108 3SM BR
     FM010800 VRB03KT 1/2SM FG SCT005
     FM011400 VRB06KT P6SM SCT250
     FM011700 24007KT P6SM VCTS BKN040CB=

USA.gov is the U.S. government's official web portal to all federal, state and local government web resources and services.